sensor_id;sensor_type;location;lat;lon;timestamp;pressure;altitude;pressure_sealevel;temperature;humidity
78170;BME280;67412;49.892;14.490;2023-04-24T00:00:50;96157.28;;;10.94;77.51
78170;BME280;67412;49.892;14.490;2023-04-24T00:03:17;96159.38;;;10.83;77.90
78170;BME280;67412;49.892;14.490;2023-04-24T00:05:46;96159.50;;;10.78;79.09
78170;BME280;67412;49.892;14.490;2023-04-24T00:08:11;96159.91;;;10.66;80.71
78170;BME280;67412;49.892;14.490;2023-04-24T00:10:37;96155.03;;;10.58;81.20
78170;BME280;67412;49.892;14.490;2023-04-24T00:13:02;96152.69;;;10.52;80.62
78170;BME280;67412;49.892;14.490;2023-04-24T00:15:27;96155.91;;;10.57;80.90
78170;BME280;67412;49.892;14.490;2023-04-24T00:17:53;96143.53;;;10.44;81.45
78170;BME280;67412;49.892;14.490;2023-04-24T00:20:18;96141.84;;;10.43;81.46
78170;BME280;67412;49.892;14.490;2023-04-24T00:22:44;96146.13;;;10.42;79.59
78170;BME280;67412;49.892;14.490;2023-04-24T00:25:09;96140.34;;;10.37;80.57
78170;BME280;67412;49.892;14.490;2023-04-24T00:27:34;96146.72;;;10.50;78.19
78170;BME280;67412;49.892;14.490;2023-04-24T00:30:02;96141.19;;;10.62;77.08
78170;BME280;67412;49.892;14.490;2023-04-24T00:32:28;96138.84;;;10.56;78.26
78170;BME280;67412;49.892;14.490;2023-04-24T00:34:53;96145.13;;;10.48;79.29
78170;BME280;67412;49.892;14.490;2023-04-24T00:37:18;96145.47;;;10.37;81.51
78170;BME280;67412;49.892;14.490;2023-04-24T00:39:44;96143.78;;;10.36;82.41
78170;BME280;67412;49.892;14.490;2023-04-24T00:42:10;96149.16;;;10.29;82.77
78170;BME280;67412;49.892;14.490;2023-04-24T00:44:36;96148.63;;;10.19;83.38
78170;BME280;67412;49.892;14.490;2023-04-24T00:47:01;96146.94;;;10.18;83.50
78170;BME280;67412;49.892;14.490;2023-04-24T00:49:27;96142.25;;;10.03;84.00
78170;BME280;67412;49.892;14.490;2023-04-24T00:51:52;96151.91;;;9.95;84.23
78170;BME280;67412;49.892;14.490;2023-04-24T00:54:19;96149.47;;;9.90;83.97
78170;BME280;67412;49.892;14.490;2023-04-24T00:56:44;96140.91;;;9.91;83.79
78170;BME280;67412;49.892;14.490;2023-04-24T00:59:13;96147.19;;;9.81;83.78
78170;BME280;67412;49.892;14.490;2023-04-24T01:01:41;96144.03;;;9.73;84.70
78170;BME280;67412;49.892;14.490;2023-04-24T01:04:07;96146.44;;;9.78;84.17
78170;BME280;67412;49.892;14.490;2023-04-24T01:06:32;96142.16;;;9.78;84.31
78170;BME280;67412;49.892;14.490;2023-04-24T01:08:58;96131.97;;;9.75;83.88
78170;BME280;67412;49.892;14.490;2023-04-24T01:11:25;96128.66;;;9.71;84.26
78170;BME280;67412;49.892;14.490;2023-04-24T01:13:51;96128.66;;;9.71;84.23
78170;BME280;67412;49.892;14.490;2023-04-24T01:16:18;96125.13;;;9.76;84.01
78170;BME280;67412;49.892;14.490;2023-04-24T01:18:45;96126.03;;;9.75;84.63
78170;BME280;67412;49.892;14.490;2023-04-24T01:21:13;96135.47;;;9.73;84.22
78170;BME280;67412;49.892;14.490;2023-04-24T01:23:38;96126.28;;;9.65;84.31
78170;BME280;67412;49.892;14.490;2023-04-24T01:26:04;96122.09;;;9.63;84.30
78170;BME280;67412;49.892;14.490;2023-04-24T01:28:29;96122.28;;;9.57;84.82
78170;BME280;67412;49.892;14.490;2023-04-24T01:30:55;96116.31;;;9.56;84.59
78170;BME280;67412;49.892;14.490;2023-04-24T01:33:21;96115.56;;;9.53;84.71
78170;BME280;67412;49.892;14.490;2023-04-24T01:35:48;96112.06;;;9.55;84.45
78170;BME280;67412;49.892;14.490;2023-04-24T01:38:13;96111.97;;;9.58;84.39
78170;BME280;67412;49.892;14.490;2023-04-24T01:40:39;96103.44;;;9.58;83.67
78170;BME280;67412;49.892;14.490;2023-04-24T01:43:05;96100.13;;;9.54;84.47
78170;BME280;67412;49.892;14.490;2023-04-24T01:45:30;96097.84;;;9.45;84.42
78170;BME280;67412;49.892;14.490;2023-04-24T01:47:56;96100.47;;;9.44;84.44
78170;BME280;67412;49.892;14.490;2023-04-24T01:50:22;96093.84;;;9.37;85.21
78170;BME280;67412;49.892;14.490;2023-04-24T01:52:47;96092.03;;;9.40;84.65
78170;BME280;67412;49.892;14.490;2023-04-24T01:55:12;96100.59;;;9.39;84.87
78170;BME280;67412;49.892;14.490;2023-04-24T01:57:38;96087.81;;;9.38;84.01
78170;BME280;67412;49.892;14.490;2023-04-24T02:00:04;96090.22;;;9.44;83.97
78170;BME280;67412;49.892;14.490;2023-04-24T02:02:30;96090.72;;;9.55;83.51
78170;BME280;67412;49.892;14.490;2023-04-24T02:04:57;96086.50;;;9.52;83.96
78170;BME280;67412;49.892;14.490;2023-04-24T02:07:22;96081.53;;;9.48;83.57
78170;BME280;67412;49.892;14.490;2023-04-24T02:09:48;96084.13;;;9.46;83.46
78170;BME280;67412;49.892;14.490;2023-04-24T02:12:14;96080.78;;;9.44;83.43
78170;BME280;67412;49.892;14.490;2023-04-24T02:14:39;96083.63;;;9.35;83.45
78170;BME280;67412;49.892;14.490;2023-04-24T02:17:05;96084.59;;;9.31;82.86
78170;BME280;67412;49.892;14.490;2023-04-24T02:19:31;96083.94;;;9.25;83.29
78170;BME280;67412;49.892;14.490;2023-04-24T02:21:57;96078.91;;;9.21;83.33
78170;BME280;67412;49.892;14.490;2023-04-24T02:24:22;96082.53;;;9.14;83.10
78170;BME280;67412;49.892;14.490;2023-04-24T02:26:47;96080.13;;;9.08;83.88
78170;BME280;67412;49.892;14.490;2023-04-24T02:29:13;96076.72;;;9.08;84.55
78170;BME280;67412;49.892;14.490;2023-04-24T02:31:38;96075.88;;;9.07;84.73
78170;BME280;67412;49.892;14.490;2023-04-24T02:34:03;96075.06;;;9.07;84.39
78170;BME280;67412;49.892;14.490;2023-04-24T02:36:28;96078.31;;;9.12;84.50
78170;BME280;67412;49.892;14.490;2023-04-24T02:38:55;96077.31;;;9.17;84.98
78170;BME280;67412;49.892;14.490;2023-04-24T02:41:20;96086.38;;;9.29;85.07
78170;BME280;67412;49.892;14.490;2023-04-24T02:43:46;96077.50;;;9.41;85.28
78170;BME280;67412;49.892;14.490;2023-04-24T02:46:11;96077.09;;;9.53;84.42
78170;BME280;67412;49.892;14.490;2023-04-24T02:48:36;96084.84;;;9.51;84.82
78170;BME280;67412;49.892;14.490;2023-04-24T02:51:02;96077.16;;;9.51;85.11
78170;BME280;67412;49.892;14.490;2023-04-24T02:53:27;96079.81;;;9.48;85.17
78170;BME280;67412;49.892;14.490;2023-04-24T02:55:54;96073.69;;;9.52;84.82
78170;BME280;67412;49.892;14.490;2023-04-24T02:58:20;96068.31;;;9.61;84.60
78170;BME280;67412;49.892;14.490;2023-04-24T03:00:46;96074.31;;;9.60;84.79
78170;BME280;67412;49.892;14.490;2023-04-24T03:03:12;96076.88;;;9.60;84.69
78170;BME280;67412;49.892;14.490;2023-04-24T03:05:37;96076.22;;;9.54;85.05
78170;BME280;67412;49.892;14.490;2023-04-24T03:08:02;96072.13;;;9.48;85.28
78170;BME280;67412;49.892;14.490;2023-04-24T03:10:28;96072.19;;;9.45;84.92
78170;BME280;67412;49.892;14.490;2023-04-24T03:12:53;96076.56;;;9.42;85.25
78170;BME280;67412;49.892;14.490;2023-04-24T03:15:20;96068.34;;;9.32;85.65
78170;BME280;67412;49.892;14.490;2023-04-24T03:17:45;96070.25;;;9.26;85.38
78170;BME280;67412;49.892;14.490;2023-04-24T03:20:10;96069.19;;;9.33;85.58
78170;BME280;67412;49.892;14.490;2023-04-24T03:22:36;96069.63;;;9.45;84.69
78170;BME280;67412;49.892;14.490;2023-04-24T03:25:01;96069.06;;;9.37;84.71
78170;BME280;67412;49.892;14.490;2023-04-24T03:27:27;96057.34;;;9.29;85.20
78170;BME280;67412;49.892;14.490;2023-04-24T03:29:52;96064.31;;;9.23;85.16
78170;BME280;67412;49.892;14.490;2023-04-24T03:32:21;96061.59;;;9.30;85.27
78170;BME280;67412;49.892;14.490;2023-04-24T03:34:48;96055.16;;;9.15;85.99
78170;BME280;67412;49.892;14.490;2023-04-24T03:37:14;96059.59;;;9.10;86.28
78170;BME280;67412;49.892;14.490;2023-04-24T03:39:39;96057.88;;;9.10;85.93
78170;BME280;67412;49.892;14.490;2023-04-24T03:42:04;96057.91;;;9.09;85.88
78170;BME280;67412;49.892;14.490;2023-04-24T03:44:30;96053.81;;;9.03;85.59
78170;BME280;67412;49.892;14.490;2023-04-24T03:46:57;96064.13;;;9.00;85.70
78170;BME280;67412;49.892;14.490;2023-04-24T03:49:23;96066.44;;;9.09;85.66
78170;BME280;67412;49.892;14.490;2023-04-24T03:51:48;96075.06;;;9.07;85.05
78170;BME280;67412;49.892;14.490;2023-04-24T03:54:13;96073.25;;;9.10;84.99
78170;BME280;67412;49.892;14.490;2023-04-24T03:56:39;96075.66;;;9.15;85.12
78170;BME280;67412;49.892;14.490;2023-04-24T03:59:04;96081.25;;;9.29;84.41
78170;BME280;67412;49.892;14.490;2023-04-24T04:01:30;96081.06;;;9.35;84.11
78170;BME280;67412;49.892;14.490;2023-04-24T04:03:55;96085.75;;;9.21;84.71
78170;BME280;67412;49.892;14.490;2023-04-24T04:06:21;96081.53;;;9.18;85.07
78170;BME280;67412;49.892;14.490;2023-04-24T04:08:47;96089.28;;;9.17;85.16
78170;BME280;67412;49.892;14.490;2023-04-24T04:11:12;96087.19;;;9.59;84.14
78170;BME280;67412;49.892;14.490;2023-04-24T04:13:37;96086.09;;;9.94;82.73
78170;BME280;67412;49.892;14.490;2023-04-24T04:16:03;96079.59;;;10.10;82.32
78170;BME280;67412;49.892;14.490;2023-04-24T04:18:28;96085.44;;;10.15;81.92
78170;BME280;67412;49.892;14.490;2023-04-24T04:20:53;96087.03;;;10.19;82.30
78170;BME280;67412;49.892;14.490;2023-04-24T04:23:19;96087.03;;;10.19;82.03
78170;BME280;67412;49.892;14.490;2023-04-24T04:25:44;96088.50;;;10.26;81.65
78170;BME280;67412;49.892;14.490;2023-04-24T04:28:09;96089.25;;;10.30;81.72
78170;BME280;67412;49.892;14.490;2023-04-24T04:30:35;96089.09;;;10.34;81.00
78170;BME280;67412;49.892;14.490;2023-04-24T04:33:03;96102.56;;;10.41;81.06
78170;BME280;67412;49.892;14.490;2023-04-24T04:35:28;96103.56;;;10.37;81.69
78170;BME280;67412;49.892;14.490;2023-04-24T04:37:53;96098.56;;;10.32;81.36
78170;BME280;67412;49.892;14.490;2023-04-24T04:40:19;96107.22;;;10.30;81.72
78170;BME280;67412;49.892;14.490;2023-04-24T04:42:44;96107.22;;;10.30;82.13
78170;BME280;67412;49.892;14.490;2023-04-24T04:45:11;96108.31;;;10.23;82.39
78170;BME280;67412;49.892;14.490;2023-04-24T04:47:37;96107.47;;;10.22;82.14
78170;BME280;67412;49.892;14.490;2023-04-24T04:50:03;96112.84;;;10.13;82.33
78170;BME280;67412;49.892;14.490;2023-04-24T04:52:30;96115.72;;;10.04;82.80
78170;BME280;67412;49.892;14.490;2023-04-24T04:54:56;96115.72;;;10.04;82.73
78170;BME280;67412;49.892;14.490;2023-04-24T04:57:21;96121.53;;;10.09;82.62
78170;BME280;67412;49.892;14.490;2023-04-24T04:59:46;96117.38;;;10.05;83.50
78170;BME280;67412;49.892;14.490;2023-04-24T05:02:12;96123.50;;;10.01;83.06
78170;BME280;67412;49.892;14.490;2023-04-24T05:04:37;96116.31;;;10.12;82.77
78170;BME280;67412;49.892;14.490;2023-04-24T05:07:03;96119.03;;;10.07;83.05
78170;BME280;67412;49.892;14.490;2023-04-24T05:09:28;96121.13;;;9.95;83.63
78170;BME280;67412;49.892;14.490;2023-04-24T05:11:55;96125.13;;;10.03;83.72
78170;BME280;67412;49.892;14.490;2023-04-24T05:14:20;96127.59;;;10.06;83.71
78170;BME280;67412;49.892;14.490;2023-04-24T05:16:46;96131.09;;;10.04;83.87
78170;BME280;67412;49.892;14.490;2023-04-24T05:19:11;96135.25;;;10.08;83.88
78170;BME280;67412;49.892;14.490;2023-04-24T05:21:39;96131.66;;;10.13;83.71
78170;BME280;67412;49.892;14.490;2023-04-24T05:24:04;96135.78;;;10.19;83.36
78170;BME280;67412;49.892;14.490;2023-04-24T05:26:30;96126.31;;;10.21;83.46
78170;BME280;67412;49.892;14.490;2023-04-24T05:28:55;96133.06;;;10.24;83.74
78170;BME280;67412;49.892;14.490;2023-04-24T05:31:20;96131.09;;;10.32;82.15
78170;BME280;67412;49.892;14.490;2023-04-24T05:33:46;96130.94;;;10.36;82.24
78170;BME280;67412;49.892;14.490;2023-04-24T05:36:11;96137.13;;;10.31;82.49
78170;BME280;67412;49.892;14.490;2023-04-24T05:38:36;96141.91;;;10.41;81.45
78170;BME280;67412;49.892;14.490;2023-04-24T05:41:02;96137.03;;;10.60;81.05
78170;BME280;67412;49.892;14.490;2023-04-24T05:43:27;96143.56;;;10.68;80.79
78170;BME280;67412;49.892;14.490;2023-04-24T05:45:53;96149.63;;;10.66;80.50
78170;BME280;67412;49.892;14.490;2023-04-24T05:48:19;96146.34;;;10.62;80.78
78170;BME280;67412;49.892;14.490;2023-04-24T05:50:44;96150.75;;;10.59;81.17
78170;BME280;67412;49.892;14.490;2023-04-24T05:53:10;96153.34;;;10.57;81.12
78170;BME280;67412;49.892;14.490;2023-04-24T05:55:36;96152.06;;;10.71;81.17
78170;BME280;67412;49.892;14.490;2023-04-24T05:58:01;96158.72;;;10.76;80.55
78170;BME280;67412;49.892;14.490;2023-04-24T06:00:26;96159.50;;;10.78;80.92
78170;BME280;67412;49.892;14.490;2023-04-24T06:02:54;96165.16;;;10.88;80.75
78170;BME280;67412;49.892;14.490;2023-04-24T06:05:20;96167.47;;;10.95;80.31
78170;BME280;67412;49.892;14.490;2023-04-24T06:07:45;96166.44;;;11.01;81.09
78170;BME280;67412;49.892;14.490;2023-04-24T06:10:11;96165.19;;;11.12;79.93
78170;BME280;67412;49.892;14.490;2023-04-24T06:12:36;96171.16;;;11.13;81.50
78170;BME280;67412;49.892;14.490;2023-04-24T06:15:03;96171.78;;;11.20;82.35
78170;BME280;67412;49.892;14.490;2023-04-24T06:17:28;96171.06;;;11.16;81.74
78170;BME280;67412;49.892;14.490;2023-04-24T06:19:53;96178.53;;;11.22;81.83
78170;BME280;67412;49.892;14.490;2023-04-24T06:22:19;96177.66;;;11.23;81.25
78170;BME280;67412;49.892;14.490;2023-04-24T06:24:44;96181.97;;;11.23;81.78
78170;BME280;67412;49.892;14.490;2023-04-24T06:27:10;96174.34;;;11.20;81.72
78170;BME280;67412;49.892;14.490;2023-04-24T06:29:36;96174.28;;;11.21;81.79
78170;BME280;67412;49.892;14.490;2023-04-24T06:32:01;96175.31;;;11.17;81.99
78170;BME280;67412;49.892;14.490;2023-04-24T06:34:26;96167.69;;;11.14;81.81
78170;BME280;67412;49.892;14.490;2023-04-24T06:36:52;96179.66;;;11.15;81.54
78170;BME280;67412;49.892;14.490;2023-04-24T06:39:17;96178.31;;;11.05;82.24
78170;BME280;67412;49.892;14.490;2023-04-24T06:41:43;96185.22;;;11.03;82.21
78170;BME280;67412;49.892;14.490;2023-04-24T06:44:08;96185.09;;;11.06;82.07
78170;BME280;67412;49.892;14.490;2023-04-24T06:46:33;96192.03;;;11.04;82.19
78170;BME280;67412;49.892;14.490;2023-04-24T06:49:00;96186.38;;;10.94;82.96
78170;BME280;67412;49.892;14.490;2023-04-24T06:51:26;96182.00;;;10.96;82.78
78170;BME280;67412;49.892;14.490;2023-04-24T06:53:53;96177.94;;;10.91;83.34
78170;BME280;67412;49.892;14.490;2023-04-24T06:56:19;96187.44;;;10.87;83.54
78170;BME280;67412;49.892;14.490;2023-04-24T06:58:45;96186.78;;;11.07;83.68
78170;BME280;67412;49.892;14.490;2023-04-24T07:01:11;96191.41;;;10.97;83.36
78170;BME280;67412;49.892;14.490;2023-04-24T07:03:36;96193.72;;;11.05;83.39
78170;BME280;67412;49.892;14.490;2023-04-24T07:06:02;96186.38;;;10.94;84.00
78170;BME280;67412;49.892;14.490;2023-04-24T07:08:28;96188.59;;;11.05;84.07
78170;BME280;67412;49.892;14.490;2023-04-24T07:10:55;96186.78;;;11.07;83.22
78170;BME280;67412;49.892;14.490;2023-04-24T07:13:21;96186.47;;;11.16;83.74
78170;BME280;67412;49.892;14.490;2023-04-24T07:15:47;96189.50;;;11.02;84.22
78170;BME280;67412;49.892;14.490;2023-04-24T07:18:15;96191.91;;;11.07;83.73
78170;BME280;67412;49.892;14.490;2023-04-24T07:20:40;96193.16;;;10.95;83.60
78170;BME280;67412;49.892;14.490;2023-04-24T07:23:06;96199.13;;;10.97;84.75
78170;BME280;67412;49.892;14.490;2023-04-24T07:25:31;96194.25;;;10.90;84.26
78170;BME280;67412;49.892;14.490;2023-04-24T07:27:57;96207.22;;;10.85;84.56
78170;BME280;67412;49.892;14.490;2023-04-24T07:30:22;96206.19;;;10.91;84.67
78170;BME280;67412;49.892;14.490;2023-04-24T07:32:47;96210.53;;;10.89;84.70
78170;BME280;67412;49.892;14.490;2023-04-24T07:35:13;96212.41;;;10.84;85.45
78170;BME280;67412;49.892;14.490;2023-04-24T07:37:38;96215.88;;;10.83;85.34
78170;BME280;67412;49.892;14.490;2023-04-24T07:40:04;96214.34;;;10.77;86.78
78170;BME280;67412;49.892;14.490;2023-04-24T07:42:29;96221.19;;;10.77;86.17
78170;BME280;67412;49.892;14.490;2023-04-24T07:44:56;96215.28;;;10.75;86.09
78170;BME280;67412;49.892;14.490;2023-04-24T07:47:21;96216.97;;;10.76;85.94
78170;BME280;67412;49.892;14.490;2023-04-24T07:49:46;96216.31;;;10.69;86.64
78170;BME280;67412;49.892;14.490;2023-04-24T07:52:12;96221.41;;;10.71;86.96
78170;BME280;67412;49.892;14.490;2023-04-24T07:54:37;96228.97;;;10.75;86.61
78170;BME280;67412;49.892;14.490;2023-04-24T07:57:03;96225.66;;;10.72;87.18
78170;BME280;67412;49.892;14.490;2023-04-24T07:59:28;96228.03;;;10.78;86.63
78170;BME280;67412;49.892;14.490;2023-04-24T08:01:53;96234.00;;;10.78;86.63
78170;BME280;67412;49.892;14.490;2023-04-24T08:04:19;96226.56;;;10.71;86.87
78170;BME280;67412;49.892;14.490;2023-04-24T08:06:44;96229.84;;;10.74;87.86
78170;BME280;67412;49.892;14.490;2023-04-24T08:09:10;96231.19;;;10.86;86.00
78170;BME280;67412;49.892;14.490;2023-04-24T08:11:35;96233.41;;;10.96;86.20
78170;BME280;67412;49.892;14.490;2023-04-24T08:14:00;96230.59;;;11.04;87.06
78170;BME280;67412;49.892;14.490;2023-04-24T08:16:26;96230.53;;;11.05;85.39
78170;BME280;67412;49.892;14.490;2023-04-24T08:18:52;96220.66;;;11.18;86.28
78170;BME280;67412;49.892;14.490;2023-04-24T08:21:18;96225.50;;;11.27;85.54
78170;BME280;67412;49.892;14.490;2023-04-24T08:23:44;96215.22;;;11.27;85.12
78170;BME280;67412;49.892;14.490;2023-04-24T08:26:10;96214.22;;;11.31;85.75
78170;BME280;67412;49.892;14.490;2023-04-24T08:28:36;96212.97;;;11.43;83.78
78170;BME280;67412;49.892;14.490;2023-04-24T08:31:02;96215.34;;;11.47;83.24
78170;BME280;67412;49.892;14.490;2023-04-24T08:33:27;96210.38;;;11.43;80.67
78170;BME280;67412;49.892;14.490;2023-04-24T08:35:57;96213.41;;;11.54;81.35
78170;BME280;67412;49.892;14.490;2023-04-24T08:38:23;96218.19;;;11.64;80.33
78170;BME280;67412;49.892;14.490;2023-04-24T08:40:48;96221.22;;;11.76;79.19
78170;BME280;67412;49.892;14.490;2023-04-24T08:43:15;96217.78;;;11.77;81.29
78170;BME280;67412;49.892;14.490;2023-04-24T08:45:41;96216.66;;;11.84;80.42
78170;BME280;67412;49.892;14.490;2023-04-24T08:48:07;96224.25;;;11.87;80.56
78170;BME280;67412;49.892;14.490;2023-04-24T08:50:32;96231.38;;;11.80;80.52
78170;BME280;67412;49.892;14.490;2023-04-24T08:52:59;96230.16;;;11.89;80.34
78170;BME280;67412;49.892;14.490;2023-04-24T08:55:26;96239.56;;;11.90;80.91
78170;BME280;67412;49.892;14.490;2023-04-24T08:57:52;96234.59;;;11.85;80.30
78170;BME280;67412;49.892;14.490;2023-04-24T09:00:20;96225.84;;;11.89;80.48
78170;BME280;67412;49.892;14.490;2023-04-24T09:02:48;96238.00;;;11.86;78.44
78170;BME280;67412;49.892;14.490;2023-04-24T09:05:16;96226.13;;;12.05;79.84
78170;BME280;67412;49.892;14.490;2023-04-24T09:07:45;96234.28;;;12.16;78.83
78170;BME280;67412;49.892;14.490;2023-04-24T09:10:11;96228.81;;;12.25;77.14
78170;BME280;67412;49.892;14.490;2023-04-24T09:12:37;96227.00;;;12.27;77.89
78170;BME280;67412;49.892;14.490;2023-04-24T09:15:03;96224.13;;;12.56;75.74
78170;BME280;67412;49.892;14.490;2023-04-24T09:17:30;96224.13;;;12.56;75.67
78170;BME280;67412;49.892;14.490;2023-04-24T09:19:55;96219.59;;;12.83;75.73
78170;BME280;67412;49.892;14.490;2023-04-24T09:22:21;96214.97;;;13.13;76.20
78170;BME280;67412;49.892;14.490;2023-04-24T09:24:47;96219.81;;;13.41;74.77
78170;BME280;67412;49.892;14.490;2023-04-24T09:27:13;96219.38;;;13.70;74.91
78170;BME280;67412;49.892;14.490;2023-04-24T09:29:39;96218.69;;;13.46;72.70
78170;BME280;67412;49.892;14.490;2023-04-24T09:32:19;96217.31;;;13.58;72.86
78170;BME280;67412;49.892;14.490;2023-04-24T09:34:47;96218.56;;;13.29;73.89
78170;BME280;67412;49.892;14.490;2023-04-24T09:37:28;96219.22;;;13.14;75.14
78170;BME280;67412;49.892;14.490;2023-04-24T09:42:37;96219.38;;;12.89;76.04
78170;BME280;67412;49.892;14.490;2023-04-24T09:45:02;96219.16;;;12.94;79.05
78170;BME280;67412;49.892;14.490;2023-04-24T09:47:35;96212.84;;;13.01;79.16
78170;BME280;67412;49.892;14.490;2023-04-24T09:50:09;96216.09;;;13.06;79.71
78170;BME280;67412;49.892;14.490;2023-04-24T09:52:34;96210.59;;;13.15;77.87
78170;BME280;67412;49.892;14.490;2023-04-24T09:55:00;96209.25;;;13.05;78.89
78170;BME280;67412;49.892;14.490;2023-04-24T09:57:26;96209.31;;;12.83;79.56
78170;BME280;67412;49.892;14.490;2023-04-24T09:59:53;96218.88;;;12.59;79.46
78170;BME280;67412;49.892;14.490;2023-04-24T10:02:21;96208.06;;;12.72;79.66
78170;BME280;67412;49.892;14.490;2023-04-24T10:04:56;96210.81;;;12.89;79.54
78170;BME280;67412;49.892;14.490;2023-04-24T10:07:26;96206.97;;;13.39;79.80
78170;BME280;67412;49.892;14.490;2023-04-24T10:09:51;96199.22;;;13.39;79.85
78170;BME280;67412;49.892;14.490;2023-04-24T10:12:17;96201.84;;;13.58;79.92
78170;BME280;67412;49.892;14.490;2023-04-24T10:14:44;96200.34;;;14.10;78.10
78170;BME280;67412;49.892;14.490;2023-04-24T10:17:10;96202.66;;;14.16;78.81
78170;BME280;67412;49.892;14.490;2023-04-24T10:19:37;96195.16;;;13.91;77.48
78170;BME280;67412;49.892;14.490;2023-04-24T10:22:03;96195.88;;;14.14;73.57
78170;BME280;67412;49.892;14.490;2023-04-24T10:24:29;96196.56;;;14.17;74.92
78170;BME280;67412;49.892;14.490;2023-04-24T10:26:57;96191.88;;;14.25;74.93
78170;BME280;67412;49.892;14.490;2023-04-24T10:29:23;96194.63;;;14.41;76.07
78170;BME280;67412;49.892;14.490;2023-04-24T10:31:49;96196.50;;;14.37;75.63
78170;BME280;67412;49.892;14.490;2023-04-24T10:34:16;96193.88;;;14.39;72.90
78170;BME280;67412;49.892;14.490;2023-04-24T10:36:46;96199.84;;;14.75;74.52
78170;BME280;67412;49.892;14.490;2023-04-24T10:39:14;96197.31;;;14.74;72.59
78170;BME280;67412;49.892;14.490;2023-04-24T10:41:41;96199.78;;;14.77;70.10
78170;BME280;67412;49.892;14.490;2023-04-24T10:44:08;96198.78;;;14.25;68.70
78170;BME280;67412;49.892;14.490;2023-04-24T10:46:35;96196.13;;;14.26;66.51
78170;BME280;67412;49.892;14.490;2023-04-24T10:49:04;96194.41;;;14.08;66.74
78170;BME280;67412;49.892;14.490;2023-04-24T10:51:51;96196.94;;;14.64;65.89
78170;BME280;67412;49.892;14.490;2023-04-24T10:54:35;96185.09;;;14.60;64.46
78170;BME280;67412;49.892;14.490;2023-04-24T10:57:33;96182.88;;;14.70;66.03
78170;BME280;67412;49.892;14.490;2023-04-24T11:02:39;96159.22;;;14.77;64.27
78170;BME280;67412;49.892;14.490;2023-04-24T11:05:06;96161.38;;;15.21;63.80
78170;BME280;67412;49.892;14.490;2023-04-24T11:08:14;96165.31;;;14.93;64.47
78170;BME280;67412;49.892;14.490;2023-04-24T11:10:44;96163.84;;;15.39;66.60
78170;BME280;67412;49.892;14.490;2023-04-24T11:13:10;96158.19;;;15.66;64.58
78170;BME280;67412;49.892;14.490;2023-04-24T11:15:35;96162.84;;;15.75;63.17
78170;BME280;67412;49.892;14.490;2023-04-24T11:18:01;96161.72;;;15.80;60.31
78170;BME280;67412;49.892;14.490;2023-04-24T11:20:26;96161.84;;;15.62;61.05
78170;BME280;67412;49.892;14.490;2023-04-24T11:22:55;96156.19;;;15.71;59.31
78170;BME280;67412;49.892;14.490;2023-04-24T11:25:22;96157.88;;;15.87;62.44
78170;BME280;67412;49.892;14.490;2023-04-24T11:27:49;96156.34;;;15.83;59.35
78170;BME280;67412;49.892;14.490;2023-04-24T11:30:19;96163.59;;;15.61;58.63
78170;BME280;67412;49.892;14.490;2023-04-24T11:32:48;96158.16;;;15.16;59.82
78170;BME280;67412;49.892;14.490;2023-04-24T11:35:17;96157.97;;;15.03;58.81
78170;BME280;67412;49.892;14.490;2023-04-24T11:37:46;96158.63;;;15.24;59.79
78170;BME280;67412;49.892;14.490;2023-04-24T11:40:13;96160.09;;;15.45;59.84
78170;BME280;67412;49.892;14.490;2023-04-24T11:42:44;96161.25;;;15.39;58.45
78170;BME280;67412;49.892;14.490;2023-04-24T11:45:12;96161.41;;;15.36;57.58
78170;BME280;67412;49.892;14.490;2023-04-24T11:47:38;96160.38;;;15.06;58.31
78170;BME280;67412;49.892;14.490;2023-04-24T11:50:06;96155.59;;;14.98;59.71
78170;BME280;67412;49.892;14.490;2023-04-24T11:52:36;96159.22;;;14.60;60.47
78170;BME280;67412;49.892;14.490;2023-04-24T11:55:01;96163.19;;;14.67;60.66
78170;BME280;67412;49.892;14.490;2023-04-24T11:57:27;96154.75;;;14.64;61.39
78170;BME280;67412;49.892;14.490;2023-04-24T11:59:58;96152.44;;;14.40;60.23
78170;BME280;67412;49.892;14.490;2023-04-24T12:02:24;96153.75;;;14.49;60.52
78170;BME280;67412;49.892;14.490;2023-04-24T12:04:53;96160.13;;;14.42;59.14
78170;BME280;67412;49.892;14.490;2023-04-24T12:07:20;96156.63;;;14.24;60.50
78170;BME280;67412;49.892;14.490;2023-04-24T12:09:59;96152.19;;;14.09;59.19
78170;BME280;67412;49.892;14.490;2023-04-24T12:12:26;96183.66;;;13.80;63.24
78170;BME280;67412;49.892;14.490;2023-04-24T12:14:54;96205.25;;;12.78;69.00
78170;BME280;67412;49.892;14.490;2023-04-24T12:17:28;96214.56;;;11.93;73.69
78170;BME280;67412;49.892;14.490;2023-04-24T12:20:00;96221.72;;;11.37;75.23
78170;BME280;67412;49.892;14.490;2023-04-24T12:22:26;96224.97;;;10.93;77.15
78170;BME280;67412;49.892;14.490;2023-04-24T12:24:59;96241.22;;;10.67;78.10
78170;BME280;67412;49.892;14.490;2023-04-24T12:27:24;96230.44;;;10.28;79.61
78170;BME280;67412;49.892;14.490;2023-04-24T12:29:56;96228.38;;;10.11;81.55
78170;BME280;67412;49.892;14.490;2023-04-24T12:32:22;96228.22;;;10.17;79.83
78170;BME280;67412;49.892;14.490;2023-04-24T12:34:49;96225.56;;;10.21;80.07
78170;BME280;67412;49.892;14.490;2023-04-24T12:37:15;96224.44;;;10.29;78.50
78170;BME280;67412;49.892;14.490;2023-04-24T12:39:58;96217.34;;;10.37;79.32
78170;BME280;67412;49.892;14.490;2023-04-24T12:42:29;96210.03;;;10.51;79.94
78170;BME280;67412;49.892;14.490;2023-04-24T12:45:01;96216.66;;;10.85;79.05
78170;BME280;67412;49.892;14.490;2023-04-24T12:47:29;96210.56;;;10.87;78.99
78170;BME280;67412;49.892;14.490;2023-04-24T12:49:54;96210.38;;;11.43;77.25
78170;BME280;67412;49.892;14.490;2023-04-24T12:52:24;96219.19;;;11.60;76.38
78170;BME280;67412;49.892;14.490;2023-04-24T12:54:53;96206.41;;;11.82;76.66